createdAt,value
2023-03-13T00:02:15.704Z,97570.00
2023-03-13T00:04:42.472Z,97572.66
2023-03-13T00:07:10.173Z,97570.97
2023-03-13T00:09:37.088Z,97572.44
2023-03-13T00:12:03.938Z,97576.09
2023-03-13T00:14:30.553Z,97585.03
2023-03-13T00:16:57.733Z,97585.03
2023-03-13T00:19:24.378Z,97580.97
2023-03-13T00:21:51.174Z,97575.22
2023-03-13T00:24:18.010Z,97583.41
2023-03-13T00:26:44.593Z,97567.59
2023-03-13T00:29:11.798Z,97584.00
2023-03-13T00:31:38.745Z,97584.19
2023-03-13T00:34:05.375Z,97581.28
2023-03-13T00:36:34.631Z,97584.75
2023-03-13T00:39:02.402Z,97597.16
2023-03-13T00:41:33.420Z,97598.56
2023-03-13T00:44:00.482Z,97592.19
2023-03-13T00:46:30.186Z,97596.22
2023-03-13T00:48:57.193Z,97586.41
2023-03-13T00:51:26.909Z,97595.41
2023-03-13T00:54:04.012Z,97580.84
2023-03-13T00:56:35.100Z,97591.00
2023-03-13T00:59:02.196Z,97599.75
2023-03-13T01:01:32.825Z,97591.41
2023-03-13T01:04:03.331Z,97598.31
2023-03-13T01:06:31.615Z,97602.34
2023-03-13T01:08:58.976Z,97593.16
2023-03-13T01:11:28.485Z,97613.94
2023-03-13T01:13:57.227Z,97613.94
2023-03-13T01:16:26.167Z,97601.25
2023-03-13T01:18:55.439Z,97604.94
2023-03-13T01:21:23.983Z,97606.13
2023-03-13T01:23:52.793Z,97604.84
2023-03-13T01:26:20.409Z,97602.41
2023-03-13T01:28:47.633Z,97606.03
2023-03-13T01:31:19.028Z,97602.50
2023-03-13T01:33:46.853Z,97604.31
2023-03-13T01:36:14.106Z,97612.91
2023-03-13T01:38:41.139Z,97612.91
2023-03-13T01:41:11.145Z,97618.56
2023-03-13T01:43:38.249Z,97606.06
2023-03-13T01:46:13.910Z,97616.13
2023-03-13T01:48:46.531Z,97615.28
2023-03-13T01:51:35.330Z,97612.38
2023-03-13T01:54:18.612Z,97619.06
2023-03-13T01:57:25.848Z,97633.91
2023-03-13T02:00:12.975Z,97636.13
2023-03-13T02:02:43.440Z,97633.47
2023-03-13T02:05:10.669Z,97622.78
2023-03-13T02:07:41.757Z,97616.25
2023-03-13T02:10:11.518Z,97628.09
2023-03-13T02:12:40.714Z,97617.00
2023-03-13T02:15:15.471Z,97644.81
2023-03-13T02:17:43.154Z,97651.28
2023-03-13T02:20:11.568Z,97656.94
2023-03-13T02:22:57.201Z,97654.75
2023-03-13T02:25:23.863Z,97667.50
2023-03-13T02:28:12.238Z,97669.53
2023-03-13T02:30:42.064Z,97680.94
2023-03-13T02:33:09.101Z,97681.09
2023-03-13T02:35:36.848Z,97676.16
2023-03-13T02:38:08.294Z,97675.19
2023-03-13T02:40:39.261Z,97690.69
2023-03-13T02:43:11.140Z,97697.97
2023-03-13T02:45:37.792Z,97687.50
2023-03-13T02:48:04.517Z,97687.31
2023-03-13T02:50:31.368Z,97697.53
2023-03-13T02:53:05.108Z,97693.03
2023-03-13T02:55:37.657Z,97679.19
2023-03-13T02:58:04.582Z,97678.75
2023-03-13T03:00:31.473Z,97692.94
2023-03-13T03:02:58.409Z,97694.16
2023-03-13T03:05:25.144Z,97691.69
2023-03-13T03:07:52.126Z,97696.97
2023-03-13T03:10:19.420Z,97686.94
2023-03-13T03:12:46.241Z,97679.00
2023-03-13T03:15:13.609Z,97666.03
2023-03-13T03:17:40.912Z,97670.50
2023-03-13T03:20:11.995Z,97690.13
2023-03-13T03:22:41.056Z,97690.28
2023-03-13T03:25:09.238Z,97688.84
2023-03-13T03:27:36.506Z,97700.41
2023-03-13T03:30:05.352Z,97691.41
2023-03-13T03:32:32.106Z,97681.44
2023-03-13T03:34:58.789Z,97671.88
2023-03-13T03:37:25.526Z,97678.63
2023-03-13T03:39:52.293Z,97690.66
2023-03-13T03:42:18.966Z,97698.78
2023-03-13T03:44:45.890Z,97696.94
2023-03-13T03:47:12.584Z,97698.78
2023-03-13T03:49:39.483Z,97699.78
2023-03-13T03:52:06.801Z,97692.69
2023-03-13T03:54:33.450Z,97674.88
2023-03-13T03:57:00.170Z,97696.25
2023-03-13T03:59:27.347Z,97687.19
2023-03-13T04:01:53.975Z,97692.41
2023-03-13T04:04:20.850Z,97689.59
2023-03-13T04:06:47.740Z,97693.41
2023-03-13T04:09:14.414Z,97695.69
2023-03-13T04:11:41.004Z,97685.00
2023-03-13T04:14:08.013Z,97678.53
2023-03-13T04:16:35.999Z,97687.94
2023-03-13T04:19:02.646Z,97692.59
2023-03-13T04:21:29.735Z,97691.56
2023-03-13T04:23:56.399Z,97691.06
2023-03-13T04:26:23.081Z,97688.56
2023-03-13T04:28:49.668Z,97700.81
2023-03-13T04:31:16.318Z,97699.59
2023-03-13T04:33:42.960Z,97704.53
2023-03-13T04:36:10.260Z,97708.00
2023-03-13T04:38:36.851Z,97706.56
2023-03-13T04:41:03.576Z,97722.84
2023-03-13T04:43:30.471Z,97698.97
2023-03-13T04:45:57.114Z,97710.66
2023-03-13T04:48:23.809Z,97720.22
2023-03-13T04:50:50.634Z,97725.59
2023-03-13T04:53:17.388Z,97730.53
2023-03-13T04:55:44.429Z,97730.44
2023-03-13T04:58:11.355Z,97738.00
2023-03-13T05:00:41.144Z,97734.34
2023-03-13T05:03:07.888Z,97752.16
2023-03-13T05:05:35.506Z,97744.88
2023-03-13T05:08:02.542Z,97742.41
2023-03-13T05:10:29.236Z,97751.81
2023-03-13T05:12:55.865Z,97749.41
2023-03-13T05:15:22.509Z,97735.56
2023-03-13T05:17:49.113Z,97735.38
2023-03-13T05:20:15.951Z,97722.59
2023-03-13T05:22:42.544Z,97742.84
2023-03-13T05:25:09.482Z,97729.47
2023-03-13T05:27:36.291Z,97717.13
2023-03-13T05:30:03.223Z,97725.34
2023-03-13T05:32:29.959Z,97741.94
2023-03-13T05:34:56.611Z,97739.13
2023-03-13T05:37:23.307Z,97733.47
2023-03-13T05:39:49.977Z,97745.19
2023-03-13T05:42:16.759Z,97722.91
2023-03-13T05:44:43.400Z,97748.63
2023-03-13T05:47:10.222Z,97754.84
2023-03-13T05:49:39.192Z,97761.03
2023-03-13T05:52:06.027Z,97773.53
2023-03-13T05:54:32.589Z,97779.09
2023-03-13T05:56:59.352Z,97781.38
2023-03-13T05:59:25.951Z,97781.25
2023-03-13T06:01:52.653Z,97777.72
2023-03-13T06:04:19.466Z,97770.47
2023-03-13T06:06:47.226Z,97774.81
2023-03-13T06:09:13.870Z,97773.88
2023-03-13T06:11:41.802Z,97769.84
2023-03-13T06:14:08.508Z,97779.75
2023-03-13T06:16:35.128Z,97779.16
2023-03-13T06:19:02.623Z,97780.84
2023-03-13T06:21:29.280Z,97771.91
2023-03-13T06:23:56.212Z,97770.59
2023-03-13T06:26:24.996Z,97765.34
2023-03-13T06:28:52.528Z,97785.44
2023-03-13T06:31:19.223Z,97781.44
2023-03-13T06:33:46.179Z,97778.06
2023-03-13T06:36:13.175Z,97765.63
2023-03-13T06:38:39.843Z,97752.56
2023-03-13T06:41:06.565Z,97747.50
2023-03-13T06:43:34.044Z,97751.81
2023-03-13T06:46:05.365Z,97748.00
2023-03-13T06:48:32.220Z,97753.75
2023-03-13T06:50:59.096Z,97751.94
2023-03-13T06:53:26.031Z,97732.91
2023-03-13T06:55:53.342Z,97749.53
2023-03-13T06:58:31.530Z,97731.13
2023-03-13T07:01:09.584Z,97741.38
2023-03-13T07:03:36.910Z,97755.31
2023-03-13T07:06:05.576Z,97760.44
2023-03-13T07:08:33.002Z,97773.94
2023-03-13T07:11:05.084Z,97777.84
2023-03-13T07:13:32.154Z,97753.66
2023-03-13T07:16:12.741Z,97764.50
2023-03-13T07:18:41.821Z,97760.41
2023-03-13T07:21:10.524Z,97774.31
2023-03-13T07:23:38.351Z,97780.03
2023-03-13T07:26:08.281Z,97773.47
2023-03-13T07:28:37.685Z,97769.75
2023-03-13T07:31:21.932Z,97755.97
2023-03-13T07:33:48.891Z,97759.88
2023-03-13T07:36:16.322Z,97753.09
2023-03-13T07:38:44.194Z,97751.22
2023-03-13T07:41:13.553Z,97759.78
2023-03-13T07:43:40.306Z,97764.47
2023-03-13T07:46:09.388Z,97760.19
2023-03-13T07:48:38.633Z,97766.88
2023-03-13T07:51:08.140Z,97770.41
2023-03-13T07:53:36.194Z,97773.41
2023-03-13T07:56:10.113Z,97764.91
2023-03-13T07:58:39.605Z,97755.16
2023-03-13T08:01:26.043Z,97755.56
2023-03-13T08:03:55.648Z,97743.03
2023-03-13T08:06:24.985Z,97749.13
2023-03-13T08:08:52.869Z,97754.22
2023-03-13T08:11:22.291Z,97758.66
2023-03-13T08:13:51.659Z,97757.75
2023-03-13T08:16:21.165Z,97743.72
2023-03-13T08:18:50.261Z,97757.13
2023-03-13T08:21:25.482Z,97754.72
2023-03-13T08:24:06.058Z,97743.69
2023-03-13T08:26:34.413Z,97757.31
2023-03-13T08:29:04.681Z,97754.75
2023-03-13T08:31:34.378Z,97741.34
2023-03-13T08:34:01.124Z,97753.94
2023-03-13T08:36:38.299Z,97738.66
2023-03-13T08:39:07.930Z,97744.16
2023-03-13T08:41:36.911Z,97746.84
2023-03-13T08:44:05.543Z,97749.50
2023-03-13T08:46:35.173Z,97749.03
2023-03-13T08:49:02.450Z,97754.94
2023-03-13T08:51:29.731Z,97755.16
2023-03-13T08:53:57.556Z,97764.34
2023-03-13T08:56:28.047Z,97749.13
2023-03-13T08:58:57.344Z,97747.41
2023-03-13T09:01:26.836Z,97757.88
2023-03-13T09:03:54.147Z,97760.41
2023-03-13T09:06:21.353Z,97754.06
2023-03-13T09:08:48.704Z,97740.34
2023-03-13T09:11:18.313Z,97747.88
2023-03-13T09:13:47.392Z,97734.50
2023-03-13T09:16:24.962Z,97738.53
2023-03-13T09:18:52.760Z,97742.28
2023-03-13T09:21:26.063Z,97731.47
2023-03-13T09:23:52.697Z,97728.94
2023-03-13T09:26:22.967Z,97723.34
2023-03-13T09:28:51.650Z,97736.63
2023-03-13T09:31:27.393Z,97729.34
2023-03-13T09:33:54.738Z,97735.69
2023-03-13T09:36:23.853Z,97731.25
2023-03-13T09:38:51.972Z,97731.41
2023-03-13T09:41:37.639Z,97726.13
2023-03-13T09:44:22.530Z,97732.72
2023-03-13T09:47:01.646Z,97717.75
2023-03-13T09:49:28.179Z,97722.16
2023-03-13T09:52:02.927Z,97715.44
2023-03-13T09:54:37.574Z,97708.75
2023-03-13T09:57:16.651Z,97710.13
2023-03-13T09:59:59.355Z,97718.84
2023-03-13T10:02:31.431Z,97707.25
2023-03-13T10:05:06.993Z,97705.94
2023-03-13T10:07:33.819Z,97704.63
2023-03-13T10:10:02.008Z,97696.00
2023-03-13T10:12:32.730Z,97690.31
2023-03-13T10:15:27.605Z,97688.94
2023-03-13T10:17:54.372Z,97691.94
2023-03-13T10:20:30.246Z,97685.69
2023-03-13T10:23:25.811Z,97674.59
2023-03-13T10:25:52.799Z,97659.44
2023-03-13T10:28:21.256Z,97662.69
2023-03-13T10:30:58.923Z,97664.25
2023-03-13T10:33:27.918Z,97656.69
2023-03-13T10:36:20.901Z,97647.72
2023-03-13T10:38:54.704Z,97642.53
2023-03-13T10:41:30.934Z,97633.28
2023-03-13T10:44:06.263Z,97628.94
2023-03-13T10:46:36.259Z,97630.28
2023-03-13T10:49:05.339Z,97617.00
2023-03-13T10:51:48.757Z,97607.53
2023-03-13T10:54:35.321Z,97611.28
2023-03-13T10:57:35.064Z,97594.47
2023-03-13T11:00:42.763Z,97599.84
2023-03-13T11:03:32.032Z,97585.47
2023-03-13T11:06:01.542Z,97591.88
2023-03-13T11:08:35.754Z,97594.56
2023-03-13T11:11:03.970Z,97602.97
2023-03-13T11:13:41.244Z,97596.72
2023-03-13T11:16:31.130Z,97601.56
2023-03-13T11:19:10.305Z,97591.53
2023-03-13T11:22:03.097Z,97585.63
2023-03-13T11:24:47.772Z,97581.81
2023-03-13T11:27:36.308Z,97582.59
2023-03-13T11:30:09.502Z,97579.84
2023-03-13T11:32:43.768Z,97582.53
2023-03-13T11:35:37.813Z,97571.50
2023-03-13T11:38:17.332Z,97579.88
2023-03-13T11:41:00.885Z,97567.34
2023-03-13T11:43:45.330Z,97575.19
2023-03-13T11:46:23.548Z,97567.88
2023-03-13T11:48:56.508Z,97564.78
2023-03-13T11:52:06.461Z,97563.44
2023-03-13T11:55:06.893Z,97559.66
2023-03-13T11:58:11.302Z,97561.28
2023-03-13T12:00:42.400Z,97545.00
2023-03-13T12:03:20.996Z,97555.22
2023-03-13T12:05:53.162Z,97547.03
2023-03-13T12:08:29.073Z,97539.13
2023-03-13T12:11:06.850Z,97551.31
2023-03-13T12:13:42.610Z,97545.41
2023-03-13T12:16:23.824Z,97548.44
2023-03-13T12:18:52.431Z,97540.78
2023-03-13T12:21:34.348Z,97548.69
2023-03-13T12:24:25.681Z,97541.97
2023-03-13T12:27:22.250Z,97539.44
2023-03-13T12:29:59.149Z,97529.28
2023-03-13T12:32:45.856Z,97522.97
2023-03-13T12:35:29.070Z,97521.47
2023-03-13T12:38:17.549Z,97517.41
2023-03-13T12:41:03.162Z,97516.94
2023-03-13T12:43:34.719Z,97509.19
2023-03-13T12:46:01.458Z,97527.06
2023-03-13T12:48:37.306Z,97511.56
2023-03-13T12:51:28.583Z,97502.44
2023-03-13T12:54:13.153Z,97520.28
2023-03-13T12:57:09.086Z,97513.50
2023-03-13T12:59:41.657Z,97512.03
2023-03-13T13:02:25.752Z,97508.22
2023-03-13T13:04:55.110Z,97494.66
2023-03-13T13:07:26.999Z,97486.25
2023-03-13T13:10:11.836Z,97500.72
2023-03-13T13:13:27.455Z,97490.69
2023-03-13T13:16:04.598Z,97489.00
2023-03-13T13:18:33.660Z,97478.38
2023-03-13T13:21:05.084Z,97478.03
2023-03-13T13:23:39.509Z,97472.00
2023-03-13T13:26:36.254Z,97463.91
2023-03-13T13:29:12.048Z,97460.69
2023-03-13T13:31:47.766Z,97457.22
2023-03-13T13:34:53.070Z,97452.06
2023-03-13T13:37:26.136Z,97456.34
2023-03-13T13:39:54.328Z,97456.44
2023-03-13T13:42:30.797Z,97458.63
2023-03-13T13:45:01.786Z,97455.41
2023-03-13T13:47:33.391Z,97444.09
2023-03-13T13:50:01.300Z,97455.97
2023-03-13T13:52:33.298Z,97448.41
2023-03-13T13:55:00.206Z,97451.13
2023-03-13T13:57:32.769Z,97448.19
2023-03-13T14:00:28.013Z,97434.03
2023-03-13T14:02:56.771Z,97435.88
2023-03-13T14:05:29.793Z,97437.69
2023-03-13T14:08:21.237Z,97424.72
2023-03-13T14:11:19.983Z,97420.75
2023-03-13T14:14:11.040Z,97421.84
2023-03-13T14:16:39.290Z,97416.72
2023-03-13T14:19:06.085Z,97406.44
2023-03-13T14:21:33.178Z,97399.41
2023-03-13T14:24:00.033Z,97405.09
2023-03-13T14:26:29.021Z,97417.56
2023-03-13T14:29:02.926Z,97409.44
2023-03-13T14:31:33.664Z,97408.63
2023-03-13T14:34:04.238Z,97404.84
2023-03-13T14:36:45.266Z,97404.22
2023-03-13T14:39:19.052Z,97392.94
2023-03-13T14:41:47.922Z,97396.50
2023-03-13T14:44:26.114Z,97395.47
2023-03-13T14:47:04.754Z,97393.41
2023-03-13T14:49:35.212Z,97388.63
2023-03-13T14:52:04.331Z,97372.97
2023-03-13T14:54:42.791Z,97373.84
2023-03-13T14:57:09.348Z,97381.41
2023-03-13T14:59:36.063Z,97376.28
2023-03-13T15:02:16.629Z,97361.47
2023-03-13T15:04:53.582Z,97362.84
2023-03-13T15:07:21.079Z,97362.63
2023-03-13T15:09:49.517Z,97374.03
2023-03-13T15:12:20.682Z,97366.22
2023-03-13T15:14:49.769Z,97367.66
2023-03-13T15:17:20.745Z,97367.41
2023-03-13T15:19:55.783Z,97375.88
2023-03-13T15:22:28.353Z,97374.03
2023-03-13T15:25:05.615Z,97370.56
2023-03-13T15:27:33.579Z,97361.72
2023-03-13T15:30:00.357Z,97350.19
2023-03-13T15:32:29.219Z,97347.78
2023-03-13T15:35:01.830Z,97342.19
2023-03-13T15:37:30.013Z,97335.53
2023-03-13T15:39:57.401Z,97339.63
2023-03-13T15:42:24.890Z,97345.59
2023-03-13T15:44:52.191Z,97339.44
2023-03-13T15:47:21.382Z,97338.41
2023-03-13T15:49:48.371Z,97351.16
2023-03-13T15:52:22.645Z,97354.72
2023-03-13T15:54:50.558Z,97351.53
2023-03-13T15:57:23.075Z,97351.59
2023-03-13T15:59:51.880Z,97343.00
2023-03-13T16:02:21.549Z,97347.41
2023-03-13T16:04:48.519Z,97346.88
2023-03-13T16:07:17.475Z,97349.09
2023-03-13T16:09:44.305Z,97349.69
2023-03-13T16:12:12.279Z,97354.28
2023-03-13T16:14:39.943Z,97352.47
2023-03-13T16:17:17.921Z,97370.56
2023-03-13T16:19:45.924Z,97361.66
2023-03-13T16:22:12.997Z,97362.25
2023-03-13T16:24:40.401Z,97368.19
2023-03-13T16:27:18.202Z,97369.28
2023-03-13T16:29:45.803Z,97366.31
2023-03-13T16:32:17.192Z,97373.84
2023-03-13T16:34:44.195Z,97378.13
2023-03-13T16:37:18.941Z,97356.25
2023-03-13T16:39:47.167Z,97365.38
2023-03-13T16:42:14.297Z,97361.81
2023-03-13T16:44:41.295Z,97372.03
2023-03-13T16:47:23.803Z,97353.63
2023-03-13T16:49:50.841Z,97352.81
2023-03-13T16:52:18.168Z,97354.59
2023-03-13T16:54:45.548Z,97352.94
2023-03-13T16:57:13.814Z,97354.50
2023-03-13T16:59:40.983Z,97354.16
2023-03-13T17:02:19.215Z,97348.19
2023-03-13T17:04:47.157Z,97339.47
2023-03-13T17:07:23.389Z,97354.47
2023-03-13T17:09:51.518Z,97351.44
2023-03-13T17:12:19.202Z,97347.78
2023-03-13T17:14:46.266Z,97341.75
2023-03-13T17:17:16.614Z,97367.56
2023-03-13T17:19:43.779Z,97358.28
2023-03-13T17:22:16.371Z,97358.66
2023-03-13T17:24:43.593Z,97362.00
2023-03-13T17:27:15.358Z,97368.41
2023-03-13T17:29:43.281Z,97365.31
2023-03-13T17:32:14.433Z,97364.16
2023-03-13T17:34:41.965Z,97362.69
2023-03-13T17:37:16.024Z,97352.06
2023-03-13T17:39:43.791Z,97356.00
2023-03-13T17:42:11.024Z,97361.88
2023-03-13T17:44:39.379Z,97356.38
2023-03-13T17:47:14.992Z,97356.31
2023-03-13T17:49:42.912Z,97353.78
2023-03-13T17:52:17.439Z,97352.50
2023-03-13T17:54:45.573Z,97351.38
2023-03-13T17:57:22.523Z,97346.13
2023-03-13T17:59:49.857Z,97346.50
2023-03-13T18:02:18.118Z,97344.84
2023-03-13T18:04:45.256Z,97350.28
2023-03-13T18:07:22.605Z,97350.44
2023-03-13T18:09:49.487Z,97360.50
2023-03-13T18:12:16.754Z,97352.63
2023-03-13T18:14:44.125Z,97356.50
2023-03-13T18:17:19.999Z,97355.25
2023-03-13T18:19:47.862Z,97358.44
2023-03-13T18:22:16.761Z,97347.53
2023-03-13T18:24:43.856Z,97348.16
2023-03-13T18:27:15.658Z,97357.00
2023-03-13T18:29:42.678Z,97350.75
2023-03-13T18:32:12.073Z,97351.16
2023-03-13T18:34:39.205Z,97345.34
2023-03-13T18:37:28.611Z,97353.50
2023-03-13T18:39:56.220Z,97335.88
2023-03-13T18:42:24.019Z,97354.34
2023-03-13T18:44:52.024Z,97351.84
2023-03-13T18:47:22.169Z,97352.78
2023-03-13T18:49:49.976Z,97345.94
2023-03-13T18:52:17.413Z,97352.34
2023-03-13T18:54:45.077Z,97348.97
2023-03-13T18:57:14.521Z,97335.94
2023-03-13T18:59:42.193Z,97334.78
2023-03-13T19:02:16.691Z,97342.81
2023-03-13T19:04:44.591Z,97348.41
2023-03-13T19:07:30.412Z,97335.63
2023-03-13T19:09:57.326Z,97340.41
2023-03-13T19:12:23.908Z,97331.09
2023-03-13T19:14:50.620Z,97343.56
2023-03-13T19:17:29.583Z,97344.84
2023-03-13T19:19:59.099Z,97349.94
2023-03-13T19:22:26.768Z,97343.44
2023-03-13T19:24:53.657Z,97346.00
2023-03-13T19:27:20.537Z,97354.47
2023-03-13T19:29:47.946Z,97351.09
2023-03-13T19:32:16.263Z,97355.03
2023-03-13T19:34:43.070Z,97358.16
2023-03-13T19:37:14.781Z,97351.66
2023-03-13T19:39:42.407Z,97350.84
2023-03-13T19:42:09.396Z,97350.50
2023-03-13T19:44:36.901Z,97341.31
2023-03-13T19:47:06.521Z,97342.00
2023-03-13T19:49:33.861Z,97344.31
2023-03-13T19:52:00.488Z,97343.50
2023-03-13T19:54:27.225Z,97337.56
2023-03-13T19:56:54.042Z,97336.06
2023-03-13T19:59:23.569Z,97331.97
2023-03-13T20:01:50.593Z,97338.97
2023-03-13T20:04:17.515Z,97332.56
2023-03-13T20:06:45.688Z,97336.59
2023-03-13T20:09:15.364Z,97332.75
2023-03-13T20:11:42.898Z,97335.06
2023-03-13T20:14:09.721Z,97336.94
2023-03-13T20:16:37.411Z,97333.34
2023-03-13T20:19:04.864Z,97333.53
2023-03-13T20:21:34.597Z,97331.22
2023-03-13T20:24:01.272Z,97324.81
2023-03-13T20:26:29.347Z,97336.66
2023-03-13T20:28:57.039Z,97321.22
2023-03-13T20:31:27.108Z,97324.00
2023-03-13T20:33:55.450Z,97326.09
2023-03-13T20:36:22.791Z,97322.47
2023-03-13T20:38:49.483Z,97324.56
2023-03-13T20:41:16.788Z,97323.25
2023-03-13T20:43:43.668Z,97338.66
2023-03-13T20:46:10.396Z,97333.56
2023-03-13T20:48:42.673Z,97323.41
2023-03-13T20:51:09.771Z,97326.69
2023-03-13T20:53:40.035Z,97325.50
2023-03-13T20:56:07.998Z,97329.22
2023-03-13T20:58:35.648Z,97322.25
2023-03-13T21:01:04.204Z,97327.44
2023-03-13T21:03:35.501Z,97327.69
2023-03-13T21:06:13.774Z,97323.38
2023-03-13T21:08:40.963Z,97306.06
2023-03-13T21:11:22.240Z,97320.13
2023-03-13T21:13:50.447Z,97312.78
2023-03-13T21:16:18.568Z,97317.09
2023-03-13T21:18:45.818Z,97314.25
2023-03-13T21:21:17.274Z,97306.50
2023-03-13T21:23:44.606Z,97310.41
2023-03-13T21:26:12.460Z,97306.94
2023-03-13T21:28:40.252Z,97309.47
2023-03-13T21:31:14.679Z,97302.72
2023-03-13T21:33:42.590Z,97303.25
2023-03-13T21:36:10.557Z,97300.00
2023-03-13T21:38:37.779Z,97289.41
2023-03-13T21:41:13.501Z,97295.19
2023-03-13T21:43:41.724Z,97298.66
2023-03-13T21:46:13.214Z,97298.28
2023-03-13T21:48:41.524Z,97292.69
2023-03-13T21:51:08.966Z,97297.91
2023-03-13T21:53:36.154Z,97293.63
2023-03-13T21:56:03.548Z,97298.59
2023-03-13T21:58:30.234Z,97298.38
2023-03-13T22:00:57.852Z,97293.25
2023-03-13T22:03:26.708Z,97293.94
2023-03-13T22:05:53.914Z,97279.63
2023-03-13T22:08:21.375Z,97287.34
2023-03-13T22:10:49.546Z,97292.06
2023-03-13T22:13:16.355Z,97287.78
2023-03-13T22:15:46.732Z,97281.72
2023-03-13T22:18:14.860Z,97278.44
2023-03-13T22:20:42.694Z,97284.81
2023-03-13T22:23:10.881Z,97288.28
2023-03-13T22:25:39.623Z,97283.63
2023-03-13T22:28:06.552Z,97281.78
2023-03-13T22:30:33.282Z,97267.94
2023-03-13T22:33:00.066Z,97268.53
2023-03-13T22:35:29.644Z,97274.91
2023-03-13T22:37:56.479Z,97261.88
2023-03-13T22:40:23.419Z,97256.97
2023-03-13T22:42:51.733Z,97258.41
2023-03-13T22:45:20.498Z,97249.88
2023-03-13T22:47:47.127Z,97238.63
2023-03-13T22:50:15.343Z,97232.13
2023-03-13T22:52:45.146Z,97232.47
2023-03-13T22:55:12.965Z,97224.84
2023-03-13T22:57:39.533Z,97227.00
2023-03-13T23:00:07.652Z,97224.16
2023-03-13T23:02:34.557Z,97220.00
2023-03-13T23:05:01.344Z,97211.16
2023-03-13T23:07:29.763Z,97218.97
2023-03-13T23:09:57.745Z,97208.00
2023-03-13T23:12:26.897Z,97206.50
2023-03-13T23:14:54.606Z,97194.31
2023-03-13T23:17:21.646Z,97187.38
2023-03-13T23:19:48.372Z,97192.88
2023-03-13T23:22:18.123Z,97181.06
2023-03-13T23:24:45.081Z,97178.41
2023-03-13T23:27:12.166Z,97185.38
2023-03-13T23:29:39.347Z,97182.72
2023-03-13T23:32:06.672Z,97187.44
2023-03-13T23:34:35.591Z,97162.28
2023-03-13T23:37:02.349Z,97174.03
2023-03-13T23:39:29.670Z,97175.28
2023-03-13T23:41:56.406Z,97185.94
2023-03-13T23:44:23.501Z,97179.06
2023-03-13T23:46:50.229Z,97183.56
2023-03-13T23:49:16.889Z,97181.34
2023-03-13T23:51:43.570Z,97178.31
2023-03-13T23:54:10.764Z,97175.44
2023-03-13T23:56:37.467Z,97167.72
2023-03-13T23:59:04.191Z,97174.22
